sensor_id;sensor_type;location;lat;lon;timestamp;P1;durP1;ratioP1;P2;durP2;ratioP2
27489;SDS011;14925;51.026;13.752;2023-01-19T00:01:14;49.35;;;23.30;;
27489;SDS011;14925;51.026;13.752;2023-01-19T00:03:39;44.67;;;22.77;;
27489;SDS011;14925;51.026;13.752;2023-01-19T00:06:05;43.78;;;19.90;;
27489;SDS011;14925;51.026;13.752;2023-01-19T00:08:31;38.75;;;20.25;;
27489;SDS011;14925;51.026;13.752;2023-01-19T00:10:56;38.10;;;19.65;;
27489;SDS011;14925;51.026;13.752;2023-01-19T00:13:22;49.55;;;22.35;;
27489;SDS011;14925;51.026;13.752;2023-01-19T00:15:47;51.53;;;22.58;;
27489;SDS011;14925;51.026;13.752;2023-01-19T00:18:13;42.92;;;21.95;;
27489;SDS011;14925;51.026;13.752;2023-01-19T00:20:38;44.67;;;22.48;;
27489;SDS011;14925;51.026;13.752;2023-01-19T00:23:04;50.17;;;23.85;;
27489;SDS011;14925;51.026;13.752;2023-01-19T00:25:31;45.25;;;22.85;;
27489;SDS011;14925;51.026;13.752;2023-01-19T00:27:57;47.35;;;21.50;;
27489;SDS011;14925;51.026;13.752;2023-01-19T00:30:22;50.63;;;23.67;;
27489;SDS011;14925;51.026;13.752;2023-01-19T00:32:48;52.00;;;23.60;;
27489;SDS011;14925;51.026;13.752;2023-01-19T00:35:13;51.15;;;23.38;;
27489;SDS011;14925;51.026;13.752;2023-01-19T00:37:39;62.05;;;26.55;;
27489;SDS011;14925;51.026;13.752;2023-01-19T00:40:05;52.17;;;25.95;;
27489;SDS011;14925;51.026;13.752;2023-01-19T00:42:31;49.08;;;22.10;;
27489;SDS011;14925;51.026;13.752;2023-01-19T00:45:12;50.08;;;23.48;;
27489;SDS011;14925;51.026;13.752;2023-01-19T00:47:39;47.80;;;22.80;;
27489;SDS011;14925;51.026;13.752;2023-01-19T00:50:05;47.50;;;23.13;;
27489;SDS011;14925;51.026;13.752;2023-01-19T00:52:35;49.97;;;23.90;;
27489;SDS011;14925;51.026;13.752;2023-01-19T00:55:01;73.93;;;32.55;;
27489;SDS011;14925;51.026;13.752;2023-01-19T00:57:26;53.60;;;24.63;;
27489;SDS011;14925;51.026;13.752;2023-01-19T00:59:53;45.42;;;21.80;;
27489;SDS011;14925;51.026;13.752;2023-01-19T01:02:19;54.20;;;25.23;;
27489;SDS011;14925;51.026;13.752;2023-01-19T01:04:44;54.05;;;25.10;;
27489;SDS011;14925;51.026;13.752;2023-01-19T01:07:09;44.00;;;21.38;;
27489;SDS011;14925;51.026;13.752;2023-01-19T01:09:35;47.67;;;22.48;;
27489;SDS011;14925;51.026;13.752;2023-01-19T01:12:00;47.78;;;21.63;;
27489;SDS011;14925;51.026;13.752;2023-01-19T01:14:26;50.05;;;24.25;;
27489;SDS011;14925;51.026;13.752;2023-01-19T01:16:51;50.35;;;24.63;;
27489;SDS011;14925;51.026;13.752;2023-01-19T01:19:16;44.15;;;20.90;;
27489;SDS011;14925;51.026;13.752;2023-01-19T01:21:42;45.13;;;23.10;;
27489;SDS011;14925;51.026;13.752;2023-01-19T01:24:08;48.53;;;23.55;;
27489;SDS011;14925;51.026;13.752;2023-01-19T01:26:33;55.50;;;25.60;;
27489;SDS011;14925;51.026;13.752;2023-01-19T01:28:59;59.10;;;26.40;;
27489;SDS011;14925;51.026;13.752;2023-01-19T01:31:24;43.92;;;21.92;;
27489;SDS011;14925;51.026;13.752;2023-01-19T01:33:50;48.28;;;22.38;;
27489;SDS011;14925;51.026;13.752;2023-01-19T01:36:15;47.28;;;22.88;;
27489;SDS011;14925;51.026;13.752;2023-01-19T01:38:43;47.97;;;22.52;;
27489;SDS011;14925;51.026;13.752;2023-01-19T01:41:09;54.22;;;24.60;;
27489;SDS011;14925;51.026;13.752;2023-01-19T01:43:50;45.47;;;21.05;;
27489;SDS011;14925;51.026;13.752;2023-01-19T01:46:23;40.35;;;20.33;;
27489;SDS011;14925;51.026;13.752;2023-01-19T01:51:27;42.80;;;20.40;;
27489;SDS011;14925;51.026;13.752;2023-01-19T01:56:48;42.85;;;20.75;;
27489;SDS011;14925;51.026;13.752;2023-01-19T02:02:27;32.88;;;16.73;;
27489;SDS011;14925;51.026;13.752;2023-01-19T02:05:28;36.80;;;18.65;;
27489;SDS011;14925;51.026;13.752;2023-01-19T02:10:50;47.15;;;21.13;;
27489;SDS011;14925;51.026;13.752;2023-01-19T02:13:35;44.05;;;20.13;;
27489;SDS011;14925;51.026;13.752;2023-01-19T02:16:05;41.60;;;20.33;;
27489;SDS011;14925;51.026;13.752;2023-01-19T02:18:31;49.33;;;22.10;;
27489;SDS011;14925;51.026;13.752;2023-01-19T02:21:04;42.53;;;21.88;;
27489;SDS011;14925;51.026;13.752;2023-01-19T02:23:36;44.55;;;20.02;;
27489;SDS011;14925;51.026;13.752;2023-01-19T02:26:03;43.55;;;20.77;;
27489;SDS011;14925;51.026;13.752;2023-01-19T02:28:31;42.97;;;20.02;;
27489;SDS011;14925;51.026;13.752;2023-01-19T02:30:56;39.90;;;20.25;;
27489;SDS011;14925;51.026;13.752;2023-01-19T02:33:22;40.10;;;19.83;;
27489;SDS011;14925;51.026;13.752;2023-01-19T02:35:48;39.67;;;20.10;;
27489;SDS011;14925;51.026;13.752;2023-01-19T02:38:15;42.17;;;20.08;;
27489;SDS011;14925;51.026;13.752;2023-01-19T02:40:41;40.38;;;18.67;;
27489;SDS011;14925;51.026;13.752;2023-01-19T02:43:06;39.13;;;18.77;;
27489;SDS011;14925;51.026;13.752;2023-01-19T02:45:32;33.50;;;17.13;;
27489;SDS011;14925;51.026;13.752;2023-01-19T02:47:59;43.10;;;18.08;;
27489;SDS011;14925;51.026;13.752;2023-01-19T02:55:58;34.90;;;16.67;;
27489;SDS011;14925;51.026;13.752;2023-01-19T02:58:48;41.38;;;17.55;;
27489;SDS011;14925;51.026;13.752;2023-01-19T03:01:33;39.50;;;18.25;;
27489;SDS011;14925;51.026;13.752;2023-01-19T03:06:43;39.10;;;17.73;;
27489;SDS011;14925;51.026;13.752;2023-01-19T03:09:28;33.97;;;16.35;;
27489;SDS011;14925;51.026;13.752;2023-01-19T03:12:07;32.28;;;15.90;;
27489;SDS011;14925;51.026;13.752;2023-01-19T03:14:36;33.53;;;15.77;;
27489;SDS011;14925;51.026;13.752;2023-01-19T03:17:05;31.05;;;15.65;;
27489;SDS011;14925;51.026;13.752;2023-01-19T03:19:32;31.02;;;15.32;;
27489;SDS011;14925;51.026;13.752;2023-01-19T03:22:11;34.67;;;15.95;;
27489;SDS011;14925;51.026;13.752;2023-01-19T03:24:39;28.45;;;14.65;;
27489;SDS011;14925;51.026;13.752;2023-01-19T03:27:21;27.38;;;14.35;;
27489;SDS011;14925;51.026;13.752;2023-01-19T03:30:00;32.40;;;15.43;;
27489;SDS011;14925;51.026;13.752;2023-01-19T03:32:31;33.92;;;15.98;;
27489;SDS011;14925;51.026;13.752;2023-01-19T03:35:00;32.20;;;15.48;;
27489;SDS011;14925;51.026;13.752;2023-01-19T03:37:28;31.02;;;14.77;;
27489;SDS011;14925;51.026;13.752;2023-01-19T03:39:54;34.47;;;15.18;;
27489;SDS011;14925;51.026;13.752;2023-01-19T03:42:20;40.95;;;16.25;;
27489;SDS011;14925;51.026;13.752;2023-01-19T03:44:47;29.73;;;14.43;;
27489;SDS011;14925;51.026;13.752;2023-01-19T03:47:15;28.15;;;14.15;;
27489;SDS011;14925;51.026;13.752;2023-01-19T03:49:42;27.25;;;13.27;;
27489;SDS011;14925;51.026;13.752;2023-01-19T03:52:08;29.45;;;14.60;;
27489;SDS011;14925;51.026;13.752;2023-01-19T03:54:33;26.38;;;13.68;;
27489;SDS011;14925;51.026;13.752;2023-01-19T03:56:58;29.10;;;15.38;;
27489;SDS011;14925;51.026;13.752;2023-01-19T03:59:24;29.67;;;13.68;;
27489;SDS011;14925;51.026;13.752;2023-01-19T04:01:49;30.20;;;14.43;;
27489;SDS011;14925;51.026;13.752;2023-01-19T04:04:15;29.42;;;16.05;;
27489;SDS011;14925;51.026;13.752;2023-01-19T04:06:40;32.50;;;15.43;;
27489;SDS011;14925;51.026;13.752;2023-01-19T04:09:06;29.45;;;15.07;;
27489;SDS011;14925;51.026;13.752;2023-01-19T04:11:32;30.05;;;13.85;;
27489;SDS011;14925;51.026;13.752;2023-01-19T04:13:57;35.30;;;15.55;;
27489;SDS011;14925;51.026;13.752;2023-01-19T04:16:23;35.30;;;15.02;;
27489;SDS011;14925;51.026;13.752;2023-01-19T04:18:48;31.52;;;15.40;;
27489;SDS011;14925;51.026;13.752;2023-01-19T04:21:14;31.48;;;15.68;;
27489;SDS011;14925;51.026;13.752;2023-01-19T04:23:40;28.58;;;15.25;;
27489;SDS011;14925;51.026;13.752;2023-01-19T04:26:06;33.63;;;15.07;;
27489;SDS011;14925;51.026;13.752;2023-01-19T04:28:32;33.28;;;16.10;;
27489;SDS011;14925;51.026;13.752;2023-01-19T04:30:58;40.97;;;19.27;;
27489;SDS011;14925;51.026;13.752;2023-01-19T04:33:25;37.42;;;17.95;;
27489;SDS011;14925;51.026;13.752;2023-01-19T04:35:51;40.78;;;19.08;;
27489;SDS011;14925;51.026;13.752;2023-01-19T04:38:17;48.80;;;19.40;;
27489;SDS011;14925;51.026;13.752;2023-01-19T04:40:43;30.58;;;16.20;;
27489;SDS011;14925;51.026;13.752;2023-01-19T04:43:09;35.80;;;16.40;;
27489;SDS011;14925;51.026;13.752;2023-01-19T04:45:34;38.53;;;17.45;;
27489;SDS011;14925;51.026;13.752;2023-01-19T04:48:01;39.00;;;17.45;;
27489;SDS011;14925;51.026;13.752;2023-01-19T04:50:28;47.58;;;19.23;;
27489;SDS011;14925;51.026;13.752;2023-01-19T04:52:54;50.22;;;20.52;;
27489;SDS011;14925;51.026;13.752;2023-01-19T04:55:20;42.15;;;20.63;;
27489;SDS011;14925;51.026;13.752;2023-01-19T04:57:46;44.05;;;20.02;;
27489;SDS011;14925;51.026;13.752;2023-01-19T05:00:11;49.78;;;20.75;;
27489;SDS011;14925;51.026;13.752;2023-01-19T05:02:37;45.83;;;19.92;;
27489;SDS011;14925;51.026;13.752;2023-01-19T05:05:03;40.67;;;17.67;;
27489;SDS011;14925;51.026;13.752;2023-01-19T05:07:29;36.47;;;18.05;;
27489;SDS011;14925;51.026;13.752;2023-01-19T05:09:54;33.90;;;16.08;;
27489;SDS011;14925;51.026;13.752;2023-01-19T05:12:20;34.90;;;17.38;;
27489;SDS011;14925;51.026;13.752;2023-01-19T05:14:45;32.85;;;16.65;;
27489;SDS011;14925;51.026;13.752;2023-01-19T05:17:11;44.05;;;19.77;;
27489;SDS011;14925;51.026;13.752;2023-01-19T05:19:36;37.65;;;19.17;;
27489;SDS011;14925;51.026;13.752;2023-01-19T05:22:03;37.70;;;17.60;;
27489;SDS011;14925;51.026;13.752;2023-01-19T05:24:29;41.50;;;16.25;;
27489;SDS011;14925;51.026;13.752;2023-01-19T05:26:54;38.95;;;16.88;;
27489;SDS011;14925;51.026;13.752;2023-01-19T05:29:19;32.97;;;15.18;;
27489;SDS011;14925;51.026;13.752;2023-01-19T05:31:45;32.35;;;15.20;;
27489;SDS011;14925;51.026;13.752;2023-01-19T05:34:11;35.17;;;15.75;;
27489;SDS011;14925;51.026;13.752;2023-01-19T05:36:37;37.83;;;16.90;;
27489;SDS011;14925;51.026;13.752;2023-01-19T05:39:03;34.17;;;16.52;;
27489;SDS011;14925;51.026;13.752;2023-01-19T05:41:28;36.10;;;17.15;;
27489;SDS011;14925;51.026;13.752;2023-01-19T05:43:54;29.80;;;15.68;;
27489;SDS011;14925;51.026;13.752;2023-01-19T05:46:19;32.65;;;17.55;;
27489;SDS011;14925;51.026;13.752;2023-01-19T05:48:45;41.83;;;19.38;;
27489;SDS011;14925;51.026;13.752;2023-01-19T05:51:10;38.65;;;19.88;;
27489;SDS011;14925;51.026;13.752;2023-01-19T05:53:35;40.92;;;20.83;;
27489;SDS011;14925;51.026;13.752;2023-01-19T05:56:04;41.58;;;20.20;;
27489;SDS011;14925;51.026;13.752;2023-01-19T05:58:32;33.55;;;16.85;;
27489;SDS011;14925;51.026;13.752;2023-01-19T06:01:02;40.70;;;18.00;;
27489;SDS011;14925;51.026;13.752;2023-01-19T06:03:29;47.05;;;18.90;;
27489;SDS011;14925;51.026;13.752;2023-01-19T06:05:58;33.05;;;16.48;;
27489;SDS011;14925;51.026;13.752;2023-01-19T06:08:24;38.25;;;17.50;;
27489;SDS011;14925;51.026;13.752;2023-01-19T06:10:49;44.35;;;19.33;;
27489;SDS011;14925;51.026;13.752;2023-01-19T06:13:15;40.80;;;17.85;;
27489;SDS011;14925;51.026;13.752;2023-01-19T06:15:41;42.17;;;18.85;;
27489;SDS011;14925;51.026;13.752;2023-01-19T06:18:07;36.65;;;17.65;;
27489;SDS011;14925;51.026;13.752;2023-01-19T06:20:34;43.15;;;21.45;;
27489;SDS011;14925;51.026;13.752;2023-01-19T06:22:59;40.58;;;18.67;;
27489;SDS011;14925;51.026;13.752;2023-01-19T06:25:25;36.53;;;17.52;;
27489;SDS011;14925;51.026;13.752;2023-01-19T06:27:50;35.47;;;17.42;;
27489;SDS011;14925;51.026;13.752;2023-01-19T06:30:16;33.35;;;16.27;;
27489;SDS011;14925;51.026;13.752;2023-01-19T06:32:42;34.20;;;15.80;;
27489;SDS011;14925;51.026;13.752;2023-01-19T06:35:07;33.78;;;18.05;;
27489;SDS011;14925;51.026;13.752;2023-01-19T06:37:33;35.72;;;17.55;;
27489;SDS011;14925;51.026;13.752;2023-01-19T06:39:59;36.92;;;17.63;;
27489;SDS011;14925;51.026;13.752;2023-01-19T06:42:24;35.63;;;17.10;;
27489;SDS011;14925;51.026;13.752;2023-01-19T06:44:50;34.50;;;17.50;;
27489;SDS011;14925;51.026;13.752;2023-01-19T06:47:15;31.85;;;14.57;;
27489;SDS011;14925;51.026;13.752;2023-01-19T06:49:40;30.17;;;14.43;;
27489;SDS011;14925;51.026;13.752;2023-01-19T06:52:07;29.52;;;14.88;;
27489;SDS011;14925;51.026;13.752;2023-01-19T06:54:36;33.30;;;15.52;;
27489;SDS011;14925;51.026;13.752;2023-01-19T06:57:02;29.70;;;13.77;;
27489;SDS011;14925;51.026;13.752;2023-01-19T06:59:28;27.92;;;13.90;;
27489;SDS011;14925;51.026;13.752;2023-01-19T07:01:53;34.63;;;13.55;;
27489;SDS011;14925;51.026;13.752;2023-01-19T07:04:20;28.67;;;14.02;;
27489;SDS011;14925;51.026;13.752;2023-01-19T07:06:46;26.92;;;13.43;;
27489;SDS011;14925;51.026;13.752;2023-01-19T07:09:11;29.23;;;14.50;;
27489;SDS011;14925;51.026;13.752;2023-01-19T07:11:37;27.92;;;13.23;;
27489;SDS011;14925;51.026;13.752;2023-01-19T07:14:03;29.17;;;13.90;;
27489;SDS011;14925;51.026;13.752;2023-01-19T07:16:28;24.92;;;13.27;;
27489;SDS011;14925;51.026;13.752;2023-01-19T07:18:54;33.35;;;12.70;;
27489;SDS011;14925;51.026;13.752;2023-01-19T07:21:19;28.20;;;13.07;;
27489;SDS011;14925;51.026;13.752;2023-01-19T07:23:49;32.10;;;13.73;;
27489;SDS011;14925;51.026;13.752;2023-01-19T07:26:15;25.38;;;12.70;;
27489;SDS011;14925;51.026;13.752;2023-01-19T07:28:43;28.50;;;13.15;;
27489;SDS011;14925;51.026;13.752;2023-01-19T07:31:09;24.88;;;12.63;;
27489;SDS011;14925;51.026;13.752;2023-01-19T07:33:34;27.08;;;12.90;;
27489;SDS011;14925;51.026;13.752;2023-01-19T07:36:00;24.30;;;11.90;;
27489;SDS011;14925;51.026;13.752;2023-01-19T07:38:26;26.05;;;12.40;;
27489;SDS011;14925;51.026;13.752;2023-01-19T07:40:51;27.88;;;13.30;;
27489;SDS011;14925;51.026;13.752;2023-01-19T07:43:24;27.83;;;12.85;;
27489;SDS011;14925;51.026;13.752;2023-01-19T07:45:49;28.73;;;12.52;;
27489;SDS011;14925;51.026;13.752;2023-01-19T07:48:15;25.63;;;11.60;;
27489;SDS011;14925;51.026;13.752;2023-01-19T07:50:41;28.73;;;11.95;;
27489;SDS011;14925;51.026;13.752;2023-01-19T07:53:07;27.10;;;13.13;;
27489;SDS011;14925;51.026;13.752;2023-01-19T07:55:33;27.52;;;12.18;;
27489;SDS011;14925;51.026;13.752;2023-01-19T07:57:58;23.05;;;12.52;;
27489;SDS011;14925;51.026;13.752;2023-01-19T08:00:24;27.40;;;12.73;;
27489;SDS011;14925;51.026;13.752;2023-01-19T08:02:50;26.70;;;13.18;;
27489;SDS011;14925;51.026;13.752;2023-01-19T08:05:16;27.45;;;12.98;;
27489;SDS011;14925;51.026;13.752;2023-01-19T08:07:42;27.08;;;13.23;;
27489;SDS011;14925;51.026;13.752;2023-01-19T08:10:11;25.58;;;13.35;;
27489;SDS011;14925;51.026;13.752;2023-01-19T08:12:37;31.30;;;14.18;;
27489;SDS011;14925;51.026;13.752;2023-01-19T08:15:03;29.45;;;12.55;;
27489;SDS011;14925;51.026;13.752;2023-01-19T08:17:29;22.77;;;12.00;;
27489;SDS011;14925;51.026;13.752;2023-01-19T08:19:54;19.83;;;10.82;;
27489;SDS011;14925;51.026;13.752;2023-01-19T08:22:20;18.92;;;10.25;;
27489;SDS011;14925;51.026;13.752;2023-01-19T08:24:45;25.20;;;11.63;;
27489;SDS011;14925;51.026;13.752;2023-01-19T08:27:10;26.20;;;11.65;;
27489;SDS011;14925;51.026;13.752;2023-01-19T08:29:36;24.40;;;12.05;;
27489;SDS011;14925;51.026;13.752;2023-01-19T08:32:01;23.02;;;11.18;;
27489;SDS011;14925;51.026;13.752;2023-01-19T08:34:27;25.83;;;11.52;;
27489;SDS011;14925;51.026;13.752;2023-01-19T08:36:55;26.08;;;11.73;;
27489;SDS011;14925;51.026;13.752;2023-01-19T08:39:20;23.02;;;11.82;;
27489;SDS011;14925;51.026;13.752;2023-01-19T08:41:47;24.95;;;12.13;;
27489;SDS011;14925;51.026;13.752;2023-01-19T08:44:14;26.35;;;11.85;;
27489;SDS011;14925;51.026;13.752;2023-01-19T08:46:40;28.50;;;13.00;;
27489;SDS011;14925;51.026;13.752;2023-01-19T08:49:05;24.60;;;12.20;;
27489;SDS011;14925;51.026;13.752;2023-01-19T08:51:31;27.25;;;13.15;;
27489;SDS011;14925;51.026;13.752;2023-01-19T08:53:56;24.13;;;11.82;;
27489;SDS011;14925;51.026;13.752;2023-01-19T08:56:21;22.30;;;12.00;;
27489;SDS011;14925;51.026;13.752;2023-01-19T08:58:47;25.67;;;13.23;;
27489;SDS011;14925;51.026;13.752;2023-01-19T09:01:12;25.42;;;13.60;;
27489;SDS011;14925;51.026;13.752;2023-01-19T09:03:38;26.67;;;13.27;;
27489;SDS011;14925;51.026;13.752;2023-01-19T09:06:07;28.08;;;12.32;;
27489;SDS011;14925;51.026;13.752;2023-01-19T09:08:33;24.25;;;13.23;;
27489;SDS011;14925;51.026;13.752;2023-01-19T09:10:59;24.42;;;12.40;;
27489;SDS011;14925;51.026;13.752;2023-01-19T09:13:24;26.15;;;12.98;;
27489;SDS011;14925;51.026;13.752;2023-01-19T09:15:50;25.35;;;13.02;;
27489;SDS011;14925;51.026;13.752;2023-01-19T09:18:17;24.02;;;12.75;;
27489;SDS011;14925;51.026;13.752;2023-01-19T09:20:44;23.95;;;13.07;;
27489;SDS011;14925;51.026;13.752;2023-01-19T09:23:12;26.77;;;12.48;;
27489;SDS011;14925;51.026;13.752;2023-01-19T09:25:39;23.52;;;11.60;;
27489;SDS011;14925;51.026;13.752;2023-01-19T09:28:06;25.65;;;12.00;;
27489;SDS011;14925;51.026;13.752;2023-01-19T09:30:33;23.00;;;12.02;;
27489;SDS011;14925;51.026;13.752;2023-01-19T16:50:13;20.02;;;11.85;;
27489;SDS011;14925;51.026;13.752;2023-01-19T16:57:17;18.88;;;12.43;;
27489;SDS011;14925;51.026;13.752;2023-01-19T17:04:08;24.25;;;13.65;;
27489;SDS011;14925;51.026;13.752;2023-01-19T17:08:03;30.10;;;15.73;;
27489;SDS011;14925;51.026;13.752;2023-01-19T17:18:26;37.13;;;18.92;;
27489;SDS011;14925;51.026;13.752;2023-01-19T17:24:27;45.22;;;21.20;;
27489;SDS011;14925;51.026;13.752;2023-01-19T17:27:18;43.92;;;21.98;;
27489;SDS011;14925;51.026;13.752;2023-01-19T17:30:08;39.60;;;21.23;;
27489;SDS011;14925;51.026;13.752;2023-01-19T17:33:17;39.20;;;20.60;;
27489;SDS011;14925;51.026;13.752;2023-01-19T17:36:06;35.15;;;19.50;;
27489;SDS011;14925;51.026;13.752;2023-01-19T17:39:19;28.35;;;16.80;;
27489;SDS011;14925;51.026;13.752;2023-01-19T17:44:37;27.67;;;15.10;;
27489;SDS011;14925;51.026;13.752;2023-01-19T17:47:19;29.98;;;17.35;;
27489;SDS011;14925;51.026;13.752;2023-01-19T17:53:40;27.00;;;15.15;;
27489;SDS011;14925;51.026;13.752;2023-01-19T17:56:42;27.27;;;14.73;;
27489;SDS011;14925;51.026;13.752;2023-01-19T17:59:52;24.65;;;14.25;;
27489;SDS011;14925;51.026;13.752;2023-01-19T18:02:37;26.08;;;13.75;;
27489;SDS011;14925;51.026;13.752;2023-01-19T18:05:17;21.35;;;11.55;;
27489;SDS011;14925;51.026;13.752;2023-01-19T18:08:17;26.50;;;14.70;;
27489;SDS011;14925;51.026;13.752;2023-01-19T18:10:57;30.05;;;14.38;;
27489;SDS011;14925;51.026;13.752;2023-01-19T18:14:05;27.40;;;14.80;;
27489;SDS011;14925;51.026;13.752;2023-01-19T18:16:43;27.38;;;14.45;;
27489;SDS011;14925;51.026;13.752;2023-01-19T18:19:39;23.52;;;12.88;;
27489;SDS011;14925;51.026;13.752;2023-01-19T18:22:49;29.50;;;15.20;;
27489;SDS011;14925;51.026;13.752;2023-01-19T18:25:36;35.03;;;16.70;;
27489;SDS011;14925;51.026;13.752;2023-01-19T18:31:08;33.13;;;16.00;;
27489;SDS011;14925;51.026;13.752;2023-01-19T18:34:17;30.13;;;15.93;;
27489;SDS011;14925;51.026;13.752;2023-01-19T18:43:22;33.20;;;17.17;;
27489;SDS011;14925;51.026;13.752;2023-01-19T18:58:22;22.73;;;12.23;;
27489;SDS011;14925;51.026;13.752;2023-01-19T19:01:46;20.83;;;13.07;;
27489;SDS011;14925;51.026;13.752;2023-01-19T19:04:45;26.60;;;13.98;;
27489;SDS011;14925;51.026;13.752;2023-01-19T19:07:51;29.77;;;16.00;;
27489;SDS011;14925;51.026;13.752;2023-01-19T19:10:34;24.67;;;13.75;;
27489;SDS011;14925;51.026;13.752;2023-01-19T19:13:27;29.88;;;15.20;;
27489;SDS011;14925;51.026;13.752;2023-01-19T19:16:07;25.02;;;15.70;;
27489;SDS011;14925;51.026;13.752;2023-01-19T19:25:03;30.38;;;15.63;;
27489;SDS011;14925;51.026;13.752;2023-01-19T19:34:51;31.17;;;13.63;;
27489;SDS011;14925;51.026;13.752;2023-01-19T19:48:15;30.10;;;15.00;;
27489;SDS011;14925;51.026;13.752;2023-01-19T19:54:33;24.80;;;14.98;;
27489;SDS011;14925;51.026;13.752;2023-01-19T20:00:53;18.85;;;9.68;;
27489;SDS011;14925;51.026;13.752;2023-01-19T20:03:52;23.38;;;14.05;;
27489;SDS011;14925;51.026;13.752;2023-01-19T20:10:12;27.10;;;14.63;;
27489;SDS011;14925;51.026;13.752;2023-01-19T20:12:54;27.95;;;14.75;;
27489;SDS011;14925;51.026;13.752;2023-01-19T20:15:25;31.52;;;15.40;;
27489;SDS011;14925;51.026;13.752;2023-01-19T20:21:08;25.80;;;13.77;;
27489;SDS011;14925;51.026;13.752;2023-01-19T20:24:32;26.77;;;15.00;;
27489;SDS011;14925;51.026;13.752;2023-01-19T20:27:14;27.00;;;14.70;;
27489;SDS011;14925;51.026;13.752;2023-01-19T20:30:27;23.70;;;13.82;;
27489;SDS011;14925;51.026;13.752;2023-01-19T20:33:22;25.30;;;14.43;;
27489;SDS011;14925;51.026;13.752;2023-01-19T20:39:54;25.60;;;15.05;;
27489;SDS011;14925;51.026;13.752;2023-01-19T20:56:29;26.95;;;13.35;;
27489;SDS011;14925;51.026;13.752;2023-01-19T21:02:03;23.10;;;14.30;;
27489;SDS011;14925;51.026;13.752;2023-01-19T21:05:24;31.13;;;15.30;;
27489;SDS011;14925;51.026;13.752;2023-01-19T21:14:56;31.02;;;16.42;;
27489;SDS011;14925;51.026;13.752;2023-01-19T21:34:26;30.23;;;17.77;;
27489;SDS011;14925;51.026;13.752;2023-01-19T21:36:51;30.80;;;18.10;;
27489;SDS011;14925;51.026;13.752;2023-01-19T21:39:16;33.58;;;16.98;;
27489;SDS011;14925;51.026;13.752;2023-01-19T21:41:42;29.60;;;18.50;;
27489;SDS011;14925;51.026;13.752;2023-01-19T21:44:09;32.63;;;19.17;;
27489;SDS011;14925;51.026;13.752;2023-01-19T21:46:35;29.60;;;16.92;;
27489;SDS011;14925;51.026;13.752;2023-01-19T21:49:02;26.08;;;16.67;;
27489;SDS011;14925;51.026;13.752;2023-01-19T21:51:30;26.00;;;15.95;;
27489;SDS011;14925;51.026;13.752;2023-01-19T21:53:57;27.95;;;15.55;;
27489;SDS011;14925;51.026;13.752;2023-01-19T21:56:25;29.48;;;16.20;;
27489;SDS011;14925;51.026;13.752;2023-01-19T21:58:51;29.42;;;16.67;;
27489;SDS011;14925;51.026;13.752;2023-01-19T22:01:17;27.00;;;16.50;;
27489;SDS011;14925;51.026;13.752;2023-01-19T22:03:42;26.73;;;16.23;;
27489;SDS011;14925;51.026;13.752;2023-01-19T22:06:09;31.02;;;17.50;;
27489;SDS011;14925;51.026;13.752;2023-01-19T22:08:35;28.40;;;16.90;;
27489;SDS011;14925;51.026;13.752;2023-01-19T22:11:02;28.05;;;16.70;;
27489;SDS011;14925;51.026;13.752;2023-01-19T22:13:28;28.67;;;16.10;;
27489;SDS011;14925;51.026;13.752;2023-01-19T22:16:00;26.15;;;16.50;;
27489;SDS011;14925;51.026;13.752;2023-01-19T22:18:26;26.45;;;16.27;;
27489;SDS011;14925;51.026;13.752;2023-01-19T22:20:52;30.30;;;17.38;;
27489;SDS011;14925;51.026;13.752;2023-01-19T22:23:17;26.90;;;16.02;;
27489;SDS011;14925;51.026;13.752;2023-01-19T22:25:43;29.60;;;17.83;;
27489;SDS011;14925;51.026;13.752;2023-01-19T22:28:08;28.85;;;16.55;;
27489;SDS011;14925;51.026;13.752;2023-01-19T22:30:33;29.95;;;17.48;;
27489;SDS011;14925;51.026;13.752;2023-01-19T22:32:59;28.45;;;16.23;;
27489;SDS011;14925;51.026;13.752;2023-01-19T22:35:24;31.90;;;17.50;;
27489;SDS011;14925;51.026;13.752;2023-01-19T22:37:49;29.60;;;17.33;;
27489;SDS011;14925;51.026;13.752;2023-01-19T22:40:15;30.95;;;16.98;;
27489;SDS011;14925;51.026;13.752;2023-01-19T22:42:47;34.58;;;17.50;;
27489;SDS011;14925;51.026;13.752;2023-01-19T22:45:13;30.48;;;18.38;;
27489;SDS011;14925;51.026;13.752;2023-01-19T22:47:38;35.65;;;19.42;;
27489;SDS011;14925;51.026;13.752;2023-01-19T22:50:04;32.50;;;18.50;;
27489;SDS011;14925;51.026;13.752;2023-01-19T22:52:30;32.33;;;19.50;;
27489;SDS011;14925;51.026;13.752;2023-01-19T22:54:56;28.70;;;16.98;;
27489;SDS011;14925;51.026;13.752;2023-01-19T22:57:22;32.40;;;18.70;;
27489;SDS011;14925;51.026;13.752;2023-01-19T22:59:48;33.25;;;18.65;;
27489;SDS011;14925;51.026;13.752;2023-01-19T23:02:13;30.65;;;18.10;;
27489;SDS011;14925;51.026;13.752;2023-01-19T23:04:39;37.13;;;19.55;;
27489;SDS011;14925;51.026;13.752;2023-01-19T23:07:04;35.63;;;19.65;;
27489;SDS011;14925;51.026;13.752;2023-01-19T23:09:32;39.50;;;21.23;;
27489;SDS011;14925;51.026;13.752;2023-01-19T23:11:58;35.10;;;19.50;;
27489;SDS011;14925;51.026;13.752;2023-01-19T23:14:23;39.42;;;21.58;;
27489;SDS011;14925;51.026;13.752;2023-01-19T23:16:49;33.90;;;20.70;;
27489;SDS011;14925;51.026;13.752;2023-01-19T23:19:14;39.63;;;21.52;;
27489;SDS011;14925;51.026;13.752;2023-01-19T23:21:43;34.75;;;21.70;;
27489;SDS011;14925;51.026;13.752;2023-01-19T23:24:09;41.17;;;21.80;;
27489;SDS011;14925;51.026;13.752;2023-01-19T23:26:35;37.45;;;20.67;;
27489;SDS011;14925;51.026;13.752;2023-01-19T23:29:09;35.60;;;20.15;;
27489;SDS011;14925;51.026;13.752;2023-01-19T23:31:36;37.22;;;20.67;;
27489;SDS011;14925;51.026;13.752;2023-01-19T23:34:04;36.83;;;20.20;;
27489;SDS011;14925;51.026;13.752;2023-01-19T23:36:32;39.92;;;20.90;;
27489;SDS011;14925;51.026;13.752;2023-01-19T23:38:59;32.42;;;19.77;;
27489;SDS011;14925;51.026;13.752;2023-01-19T23:41:28;34.38;;;20.42;;
27489;SDS011;14925;51.026;13.752;2023-01-19T23:43:55;32.45;;;18.77;;
27489;SDS011;14925;51.026;13.752;2023-01-19T23:46:20;36.15;;;20.10;;
27489;SDS011;14925;51.026;13.752;2023-01-19T23:48:46;32.88;;;20.50;;
27489;SDS011;14925;51.026;13.752;2023-01-19T23:51:13;33.05;;;18.92;;
27489;SDS011;14925;51.026;13.752;2023-01-19T23:53:46;32.78;;;18.73;;
27489;SDS011;14925;51.026;13.752;2023-01-19T23:58:50;36.15;;;20.10;;
